CFE98G EGLC-EGPH
Flight info
| Callsign | CFE98G |
|---|---|
| Flight time | 0h 53m |
| Altitude | 32000 |
| Route | BPK1H BPK UN601 RIBEL DCT INPIP INPIP1E |
| Aircraft | E190/M-SDE2E3GHIJ1LORVWXY/SB1 |
Departure
| Time | 2026-04-23 13:14 |
|---|---|
| Airport | London City Airport (EGLC) |
Arrival
| Time | 2026-04-23 14:07 |
|---|---|
| Airport | Edinburgh Airport (EGPH) |
| Time | Latitude | Longitude | Altitude | Speed | Heading |
|---|---|---|---|---|---|
| 2026-04-23 12:57 | 51.50406 | 0.05199 | 26 ft | 0 kts | 323° |
| 2026-04-23 13:10 | 51.50407 | 0.05199 | 24 ft | 0 kts | 323° |
| 2026-04-23 13:10 | 51.50423 | 0.05199 | 24 ft | 5 kts | 2° |
| 2026-04-23 13:11 | 51.50448 | 0.05158 | 24 ft | 7 kts | 288° |
| 2026-04-23 13:11 | 51.50458 | 0.05057 | 24 ft | 10 kts | 282° |
| 2026-04-23 13:11 | 51.50464 | 0.04928 | 24 ft | 13 kts | 272° |
| 2026-04-23 13:11 | 51.50469 | 0.04774 | 24 ft | 15 kts | 273° |
| 2026-04-23 13:12 | 51.50474 | 0.04595 | 24 ft | 17 kts | 272° |
| 2026-04-23 13:12 | 51.50477 | 0.04502 | 24 ft | 8 kts | 275° |
| 2026-04-23 13:12 | 51.50517 | 0.04443 | 24 ft | 9 kts | 354° |
| 2026-04-23 13:12 | 51.50554 | 0.04466 | 24 ft | 4 kts | 67° |
| 2026-04-23 13:13 | 51.50554 | 0.04485 | 24 ft | 0 kts | 92° |
| 2026-04-23 13:13 | 51.50541 | 0.04939 | 24 ft | 79 kts | 93° |
| 2026-04-23 13:13 | 51.50507 | 0.06150 | 139 ft | 128 kts | 91° |
| 2026-04-23 13:14 | 51.50465 | 0.07676 | 826 ft | 141 kts | 92° |
| 2026-04-23 13:14 | 51.50422 | 0.09293 | 1727 ft | 149 kts | 87° |
| 2026-04-23 13:14 | 51.50696 | 0.10940 | 2126 ft | 154 kts | 59° |
| 2026-04-23 13:14 | 51.51485 | 0.12112 | 2576 ft | 161 kts | 36° |
| 2026-04-23 13:15 | 51.52600 | 0.12577 | 2949 ft | 174 kts | 6° |
| 2026-04-23 13:15 | 51.53824 | 0.12003 | 3041 ft | 193 kts | 333° |
| 2026-04-23 13:15 | 51.54885 | 0.10630 | 3004 ft | 199 kts | 323° |
| 2026-04-23 13:15 | 51.55966 | 0.09152 | 3021 ft | 211 kts | 324° |
| 2026-04-23 13:16 | 51.57108 | 0.07613 | 3021 ft | 217 kts | 324° |
| 2026-04-23 13:16 | 51.58269 | 0.06056 | 3058 ft | 216 kts | 325° |
| 2026-04-23 13:16 | 51.59492 | 0.04721 | 3116 ft | 221 kts | 334° |
| 2026-04-23 13:16 | 51.60912 | 0.03395 | 3160 ft | 245 kts | 333° |
| 2026-04-23 13:17 | 51.62402 | 0.01929 | 3440 ft | 256 kts | 332° |
| 2026-04-23 13:17 | 51.63953 | 0.00393 | 3705 ft | 266 kts | 332° |
| 2026-04-23 13:17 | 51.65541 | -0.01197 | 4028 ft | 271 kts | 331° |
| 2026-04-23 13:17 | 51.67155 | -0.02808 | 4687 ft | 274 kts | 331° |
| 2026-04-23 13:18 | 51.68793 | -0.04447 | 5699 ft | 278 kts | 331° |
| 2026-04-23 13:18 | 51.70450 | -0.06101 | 6764 ft | 283 kts | 330° |
| 2026-04-23 13:18 | 51.72129 | -0.07788 | 7669 ft | 287 kts | 330° |
| 2026-04-23 13:18 | 51.73827 | -0.09493 | 8619 ft | 288 kts | 330° |
| 2026-04-23 13:19 | 51.75558 | -0.11225 | 9411 ft | 296 kts | 332° |
| 2026-04-23 13:19 | 51.77347 | -0.12920 | 10362 ft | 298 kts | 332° |
| 2026-04-23 13:19 | 51.79168 | -0.14634 | 11001 ft | 312 kts | 333° |
| 2026-04-23 13:19 | 51.81072 | -0.16429 | 11692 ft | 321 kts | 332° |
| 2026-04-23 13:20 | 51.83017 | -0.18277 | 12452 ft | 327 kts | 332° |
| 2026-04-23 13:20 | 51.84989 | -0.20150 | 13365 ft | 330 kts | 332° |
| 2026-04-23 13:20 | 51.86988 | -0.22050 | 14290 ft | 335 kts | 332° |
| 2026-04-23 13:20 | 51.89007 | -0.23976 | 15187 ft | 339 kts | 332° |
| 2026-04-23 13:21 | 51.91052 | -0.25924 | 16104 ft | 342 kts | 333° |
| 2026-04-23 13:21 | 51.93085 | -0.27861 | 16963 ft | 346 kts | 332° |
| 2026-04-23 13:21 | 51.95166 | -0.29848 | 17797 ft | 349 kts | 332° |
| 2026-04-23 13:21 | 51.97271 | -0.31862 | 18633 ft | 354 kts | 332° |
| 2026-04-23 13:22 | 51.99404 | -0.33907 | 19371 ft | 358 kts | 332° |
| 2026-04-23 13:22 | 52.01558 | -0.35971 | 20084 ft | 361 kts | 332° |
| 2026-04-23 13:22 | 52.03732 | -0.38059 | 20785 ft | 365 kts | 332° |
| 2026-04-23 13:22 | 52.05927 | -0.40167 | 21455 ft | 368 kts | 332° |
| 2026-04-23 13:23 | 52.08134 | -0.42292 | 22109 ft | 371 kts | 332° |
| 2026-04-23 13:23 | 52.10365 | -0.44448 | 22753 ft | 374 kts | 332° |
| 2026-04-23 13:23 | 52.12610 | -0.46636 | 23382 ft | 378 kts | 332° |
| 2026-04-23 13:23 | 52.14880 | -0.48847 | 24030 ft | 381 kts | 331° |
| 2026-04-23 13:24 | 52.17163 | -0.51076 | 24577 ft | 385 kts | 331° |
| 2026-04-23 13:24 | 52.19470 | -0.53330 | 25118 ft | 389 kts | 331° |
| 2026-04-23 13:24 | 52.21804 | -0.55615 | 25617 ft | 394 kts | 331° |
| 2026-04-23 13:24 | 52.24163 | -0.57922 | 26130 ft | 398 kts | 331° |
| 2026-04-23 13:25 | 52.26552 | -0.60244 | 26638 ft | 402 kts | 331° |
| 2026-04-23 13:25 | 52.28967 | -0.62581 | 27090 ft | 406 kts | 331° |
| 2026-04-23 13:25 | 52.31450 | -0.64857 | 27507 ft | 411 kts | 332° |
| 2026-04-23 13:25 | 52.33952 | -0.67156 | 27911 ft | 416 kts | 332° |
| 2026-04-23 13:26 | 52.36481 | -0.69481 | 28370 ft | 419 kts | 332° |
| 2026-04-23 13:26 | 52.39043 | -0.71844 | 28746 ft | 424 kts | 332° |
| 2026-04-23 13:26 | 52.41618 | -0.74222 | 29222 ft | 427 kts | 331° |
| 2026-04-23 13:26 | 52.44211 | -0.76625 | 29665 ft | 430 kts | 331° |
| 2026-04-23 13:27 | 52.46827 | -0.79051 | 30056 ft | 433 kts | 331° |
| 2026-04-23 13:27 | 52.49458 | -0.81497 | 30464 ft | 437 kts | 331° |
| 2026-04-23 13:27 | 52.52112 | -0.83967 | 30782 ft | 440 kts | 331° |
| 2026-04-23 13:27 | 52.54785 | -0.86459 | 31056 ft | 444 kts | 330° |
| 2026-04-23 13:28 | 52.57483 | -0.88978 | 31381 ft | 447 kts | 330° |
| 2026-04-23 13:28 | 52.60192 | -0.91509 | 31695 ft | 450 kts | 330° |
| 2026-04-23 13:28 | 52.62919 | -0.94063 | 31964 ft | 452 kts | 330° |
| 2026-04-23 13:28 | 52.65662 | -0.96636 | 32256 ft | 454 kts | 330° |
| 2026-04-23 13:29 | 52.68423 | -0.99226 | 32372 ft | 461 kts | 330° |
| 2026-04-23 13:29 | 52.71224 | -1.01860 | 32564 ft | 463 kts | 331° |
| 2026-04-23 13:29 | 52.74021 | -1.04495 | 32630 ft | 461 kts | 332° |
| 2026-04-23 13:30 | 52.79566 | -1.09726 | 32570 ft | 464 kts | 331° |
| 2026-04-23 13:30 | 52.85157 | -1.15016 | 32478 ft | 462 kts | 331° |
| 2026-04-23 13:31 | 52.90739 | -1.20315 | 32483 ft | 463 kts | 331° |
| 2026-04-23 13:31 | 52.96333 | -1.25641 | 32486 ft | 463 kts | 331° |
| 2026-04-23 13:32 | 53.01907 | -1.30964 | 32473 ft | 463 kts | 330° |
| 2026-04-23 13:32 | 53.07504 | -1.36325 | 32477 ft | 464 kts | 330° |
| 2026-04-23 13:33 | 53.13101 | -1.41700 | 32472 ft | 465 kts | 330° |
| 2026-04-23 13:33 | 53.18711 | -1.47103 | 32476 ft | 467 kts | 330° |
| 2026-04-23 13:34 | 53.24326 | -1.52524 | 32473 ft | 466 kts | 330° |
| 2026-04-23 13:34 | 53.29806 | -1.57836 | 32487 ft | 442 kts | 331° |
| 2026-04-23 13:35 | 53.35108 | -1.62973 | 32495 ft | 445 kts | 331° |
| 2026-04-23 13:35 | 53.40473 | -1.68194 | 32488 ft | 446 kts | 331° |
| 2026-04-23 13:36 | 53.45840 | -1.73429 | 32494 ft | 446 kts | 331° |
| 2026-04-23 13:36 | 53.51206 | -1.78675 | 32495 ft | 447 kts | 330° |
| 2026-04-23 13:37 | 53.56570 | -1.83947 | 32504 ft | 446 kts | 331° |
| 2026-04-23 13:37 | 53.61931 | -1.89219 | 32493 ft | 446 kts | 330° |
| 2026-04-23 13:38 | 53.67289 | -1.94510 | 32491 ft | 446 kts | 330° |
| 2026-04-23 13:38 | 53.72614 | -1.99787 | 32487 ft | 446 kts | 330° |
| 2026-04-23 13:39 | 53.77976 | -2.05109 | 32497 ft | 448 kts | 330° |
| 2026-04-23 13:39 | 53.83334 | -2.10446 | 32499 ft | 443 kts | 330° |
| 2026-04-23 13:40 | 53.88609 | -2.15719 | 32488 ft | 440 kts | 330° |
| 2026-04-23 13:40 | 53.93889 | -2.21016 | 32491 ft | 441 kts | 330° |
| 2026-04-23 13:41 | 53.99167 | -2.26323 | 32496 ft | 441 kts | 330° |
| 2026-04-23 13:41 | 54.04643 | -2.30992 | 32506 ft | 441 kts | 338° |
| 2026-04-23 13:42 | 54.10325 | -2.34946 | 32482 ft | 441 kts | 339° |
| 2026-04-23 13:42 | 54.16021 | -2.38894 | 32481 ft | 442 kts | 339° |
| 2026-04-23 13:43 | 54.21714 | -2.42836 | 32479 ft | 442 kts | 339° |
| 2026-04-23 13:43 | 54.27423 | -2.46792 | 32487 ft | 443 kts | 339° |
| 2026-04-23 13:44 | 54.33145 | -2.50766 | 32482 ft | 444 kts | 339° |
| 2026-04-23 13:44 | 54.38868 | -2.54751 | 32482 ft | 444 kts | 338° |
| 2026-04-23 13:45 | 54.43628 | -2.58074 | 32478 ft | 444 kts | 338° |
| 2026-04-23 13:45 | 54.50281 | -2.62731 | 32477 ft | 445 kts | 338° |
| 2026-04-23 13:46 | 54.56020 | -2.66760 | 32478 ft | 445 kts | 338° |
| 2026-04-23 13:46 | 54.58867 | -2.68766 | 32469 ft | 433 kts | 338° |
| 2026-04-23 13:46 | 54.61606 | -2.70696 | 32459 ft | 417 kts | 338° |
| 2026-04-23 13:46 | 54.64253 | -2.72565 | 32468 ft | 406 kts | 338° |
| 2026-04-23 13:47 | 54.66824 | -2.74382 | 32254 ft | 404 kts | 338° |
| 2026-04-23 13:47 | 54.69469 | -2.76259 | 31064 ft | 417 kts | 338° |
| 2026-04-23 13:47 | 54.72171 | -2.78182 | 29924 ft | 421 kts | 338° |
| 2026-04-23 13:47 | 54.74874 | -2.80108 | 29145 ft | 415 kts | 338° |
| 2026-04-23 13:48 | 54.77505 | -2.81984 | 28577 ft | 405 kts | 338° |
| 2026-04-23 13:48 | 54.80081 | -2.83825 | 28060 ft | 398 kts | 338° |
| 2026-04-23 13:48 | 54.82632 | -2.85649 | 27502 ft | 395 kts | 338° |
| 2026-04-23 13:48 | 54.85168 | -2.87466 | 26985 ft | 394 kts | 338° |
| 2026-04-23 13:49 | 54.87703 | -2.89286 | 26451 ft | 394 kts | 338° |
| 2026-04-23 13:49 | 54.90235 | -2.91131 | 25905 ft | 395 kts | 337° |
| 2026-04-23 13:49 | 54.92758 | -2.92992 | 25359 ft | 394 kts | 337° |
| 2026-04-23 13:49 | 54.95273 | -2.94848 | 24798 ft | 392 kts | 337° |
| 2026-04-23 13:50 | 54.97775 | -2.96694 | 24246 ft | 390 kts | 337° |
| 2026-04-23 13:50 | 55.00272 | -2.98541 | 23665 ft | 388 kts | 337° |
| 2026-04-23 13:50 | 55.02744 | -3.00369 | 23158 ft | 384 kts | 337° |
| 2026-04-23 13:50 | 55.05204 | -3.02193 | 22613 ft | 383 kts | 337° |
| 2026-04-23 13:51 | 55.07647 | -3.04003 | 22075 ft | 381 kts | 337° |
| 2026-04-23 13:51 | 55.10058 | -3.05859 | 21571 ft | 377 kts | 333° |
| 2026-04-23 13:51 | 55.12345 | -3.08054 | 21181 ft | 374 kts | 330° |
| 2026-04-23 13:51 | 55.13837 | -3.09563 | 20916 ft | 372 kts | 329° |
| 2026-04-23 13:52 | 55.16020 | -3.11774 | 20765 ft | 355 kts | 329° |
| 2026-04-23 13:52 | 55.18791 | -3.14581 | 20385 ft | 341 kts | 329° |
| 2026-04-23 13:52 | 55.20813 | -3.16632 | 20078 ft | 331 kts | 329° |
| 2026-04-23 13:52 | 55.22793 | -3.18650 | 19713 ft | 326 kts | 329° |
| 2026-04-23 13:53 | 55.24079 | -3.19957 | 19570 ft | 318 kts | 329° |
| 2026-04-23 13:53 | 55.26004 | -3.21915 | 19114 ft | 323 kts | 329° |
| 2026-04-23 13:53 | 55.27973 | -3.23911 | 18721 ft | 331 kts | 329° |
| 2026-04-23 13:53 | 55.29982 | -3.25954 | 18274 ft | 337 kts | 329° |
| 2026-04-23 13:54 | 55.32023 | -3.28023 | 17740 ft | 337 kts | 329° |
| 2026-04-23 13:54 | 55.34044 | -3.30070 | 17250 ft | 333 kts | 329° |
| 2026-04-23 13:54 | 55.35981 | -3.32009 | 17171 ft | 310 kts | 329° |
| 2026-04-23 13:54 | 55.37832 | -3.33853 | 16793 ft | 300 kts | 329° |
| 2026-04-23 13:55 | 55.39616 | -3.35621 | 16475 ft | 289 kts | 329° |
| 2026-04-23 13:55 | 55.41364 | -3.37372 | 16105 ft | 287 kts | 329° |
| 2026-04-23 13:55 | 55.43093 | -3.39070 | 15835 ft | 281 kts | 330° |
| 2026-04-23 13:55 | 55.44804 | -3.40762 | 15276 ft | 286 kts | 329° |
| 2026-04-23 13:56 | 55.46568 | -3.42509 | 14664 ft | 295 kts | 330° |
| 2026-04-23 13:56 | 55.48398 | -3.44182 | 13980 ft | 297 kts | 331° |
| 2026-04-23 13:56 | 55.50246 | -3.45896 | 13053 ft | 301 kts | 331° |
| 2026-04-23 13:56 | 55.52086 | -3.47648 | 12186 ft | 299 kts | 329° |
| 2026-04-23 13:57 | 55.53809 | -3.49547 | 11374 ft | 295 kts | 321° |
| 2026-04-23 13:57 | 55.55378 | -3.51860 | 10579 ft | 291 kts | 317° |
| 2026-04-23 13:57 | 55.56897 | -3.54172 | 9823 ft | 286 kts | 317° |
| 2026-04-23 13:57 | 55.58374 | -3.56478 | 9089 ft | 280 kts | 316° |
| 2026-04-23 13:58 | 55.59811 | -3.58771 | 8338 ft | 276 kts | 316° |
| 2026-04-23 13:58 | 55.61242 | -3.61042 | 7564 ft | 276 kts | 316° |
| 2026-04-23 13:58 | 55.62763 | -3.63073 | 6873 ft | 273 kts | 326° |
| 2026-04-23 13:58 | 55.64400 | -3.64713 | 6293 ft | 266 kts | 329° |
| 2026-04-23 13:59 | 55.65970 | -3.66234 | 5966 ft | 250 kts | 329° |
| 2026-04-23 13:59 | 55.67473 | -3.67671 | 5634 ft | 242 kts | 330° |
| 2026-04-23 13:59 | 55.68932 | -3.69082 | 5490 ft | 236 kts | 329° |
| 2026-04-23 13:59 | 55.70362 | -3.70451 | 5286 ft | 233 kts | 330° |
| 2026-04-23 14:00 | 55.71306 | -3.71342 | 5142 ft | 231 kts | 330° |
| 2026-04-23 14:00 | 55.73179 | -3.73087 | 4913 ft | 224 kts | 330° |
| 2026-04-23 14:00 | 55.74504 | -3.74351 | 4787 ft | 217 kts | 330° |
| 2026-04-23 14:00 | 55.75807 | -3.75604 | 4683 ft | 210 kts | 329° |
| 2026-04-23 14:01 | 55.77099 | -3.76845 | 4548 ft | 212 kts | 330° |
| 2026-04-23 14:01 | 55.78442 | -3.77946 | 4387 ft | 214 kts | 345° |
| 2026-04-23 14:01 | 55.79893 | -3.78009 | 4414 ft | 204 kts | 13° |
| 2026-04-23 14:01 | 55.81158 | -3.76969 | 4275 ft | 200 kts | 38° |
| 2026-04-23 14:02 | 55.82070 | -3.75203 | 4246 ft | 191 kts | 57° |
| 2026-04-23 14:02 | 55.82800 | -3.73261 | 4186 ft | 187 kts | 61° |
| 2026-04-23 14:02 | 55.83456 | -3.71282 | 4089 ft | 184 kts | 63° |
| 2026-04-23 14:02 | 55.84096 | -3.69298 | 3981 ft | 186 kts | 62° |
| 2026-04-23 14:03 | 55.84762 | -3.67319 | 3874 ft | 186 kts | 61° |
| 2026-04-23 14:03 | 55.85440 | -3.65362 | 3718 ft | 186 kts | 62° |
| 2026-04-23 14:03 | 55.86114 | -3.63393 | 3582 ft | 187 kts | 62° |
| 2026-04-23 14:03 | 55.86781 | -3.61402 | 3470 ft | 187 kts | 62° |
| 2026-04-23 14:04 | 55.87422 | -3.59389 | 3407 ft | 187 kts | 63° |
| 2026-04-23 14:04 | 55.88108 | -3.57373 | 3266 ft | 192 kts | 60° |
| 2026-04-23 14:04 | 55.88828 | -3.55362 | 3042 ft | 193 kts | 59° |
| 2026-04-23 14:04 | 55.89566 | -3.53337 | 2819 ft | 195 kts | 59° |
| 2026-04-23 14:05 | 55.90271 | -3.51352 | 2549 ft | 182 kts | 61° |
| 2026-04-23 14:05 | 55.90887 | -3.49476 | 2216 ft | 171 kts | 63° |
| 2026-04-23 14:05 | 55.91453 | -3.47677 | 1877 ft | 162 kts | 62° |
| 2026-04-23 14:05 | 55.92009 | -3.45975 | 1522 ft | 157 kts | 60° |
| 2026-04-23 14:06 | 55.92590 | -3.44361 | 1189 ft | 152 kts | 59° |
| 2026-04-23 14:06 | 55.93091 | -3.42851 | 955 ft | 130 kts | 61° |
| 2026-04-23 14:06 | 55.93535 | -3.41561 | 686 ft | 120 kts | 59° |
| 2026-04-23 14:06 | 55.93959 | -3.40318 | 415 ft | 115 kts | 59° |
| 2026-04-23 14:07 | 55.94365 | -3.39118 | 215 ft | 111 kts | 59° |
| 2026-04-23 14:07 | 55.95031 | -3.37159 | 109 ft | 62 kts | 59° |
| 2026-04-23 14:07 | 55.95190 | -3.36692 | 113 ft | 30 kts | 59° |
| 2026-04-23 14:08 | 55.95257 | -3.36479 | 110 ft | 11 kts | 73° |
| 2026-04-23 14:08 | 55.95222 | -3.36382 | 112 ft | 9 kts | 147° |
| 2026-04-23 14:08 | 55.95172 | -3.36329 | 111 ft | 8 kts | 149° |
| 2026-04-23 14:08 | 55.95119 | -3.36330 | 112 ft | 9 kts | 232° |
| 2026-04-23 14:09 | 55.95071 | -3.36400 | 115 ft | 10 kts | 175° |
| 2026-04-23 14:09 | 55.95006 | -3.36422 | 115 ft | 11 kts | 235° |
| 2026-04-23 14:09 | 55.94966 | -3.36537 | 115 ft | 5 kts | 236° |
| 2026-04-23 14:09 | 55.94935 | -3.36530 | 115 ft | 3 kts | 144° |
| 2026-04-23 14:10 | 55.94909 | -3.36500 | 112 ft | 5 kts | 148° |
| 2026-04-23 14:10 | 55.94902 | -3.36491 | 113 ft | 0 kts | 148° |